createdAt,value
2022-09-23T00:00:32.465Z,85
2022-09-23T00:01:32.480Z,85
2022-09-23T00:02:32.556Z,85
2022-09-23T00:03:32.467Z,86
2022-09-23T00:04:32.476Z,85
2022-09-23T00:05:32.475Z,85
2022-09-23T00:06:32.485Z,85
2022-09-23T00:07:32.540Z,85
2022-09-23T00:08:32.445Z,85
2022-09-23T00:09:32.445Z,85
2022-09-23T00:10:32.510Z,85
2022-09-23T00:11:32.514Z,85
2022-09-23T00:12:32.459Z,85
2022-09-23T00:13:32.447Z,85
2022-09-23T00:14:32.456Z,85
2022-09-23T00:15:32.444Z,85
2022-09-23T00:16:32.535Z,85
2022-09-23T00:17:32.473Z,85
2022-09-23T00:18:32.469Z,85
2022-09-23T00:19:32.446Z,85
2022-09-23T00:20:32.456Z,85
2022-09-23T00:21:32.423Z,85
2022-09-23T00:22:32.460Z,85
2022-09-23T00:23:32.563Z,85
2022-09-23T00:24:32.479Z,85
2022-09-23T00:25:32.431Z,85
2022-09-23T00:26:32.459Z,85
2022-09-23T00:27:32.505Z,85
2022-09-23T00:28:32.469Z,85
2022-09-23T00:29:32.446Z,85
2022-09-23T00:30:32.487Z,85
2022-09-23T00:31:32.454Z,85
2022-09-23T00:32:32.435Z,85
2022-09-23T00:33:32.472Z,85
2022-09-23T00:34:32.515Z,85
2022-09-23T00:35:32.520Z,85
2022-09-23T00:36:32.453Z,85
2022-09-23T00:37:32.447Z,85
2022-09-23T00:38:32.422Z,85
2022-09-23T00:39:32.434Z,85
2022-09-23T00:40:32.453Z,85
2022-09-23T00:41:32.497Z,85
2022-09-23T00:42:32.448Z,85
2022-09-23T00:43:32.486Z,85
2022-09-23T00:44:32.528Z,85
2022-09-23T00:45:32.455Z,85
2022-09-23T00:46:32.551Z,85
2022-09-23T00:47:32.465Z,85
2022-09-23T00:48:32.636Z,86
2022-09-23T00:49:32.461Z,86
2022-09-23T00:50:32.450Z,86
2022-09-23T00:51:32.471Z,86
2022-09-23T00:52:32.510Z,86
2022-09-23T00:53:32.468Z,86
2022-09-23T00:54:32.617Z,86
2022-09-23T00:55:32.478Z,86
2022-09-23T00:56:32.412Z,86
2022-09-23T00:57:32.432Z,86
2022-09-23T00:58:32.431Z,86
2022-09-23T00:59:32.701Z,86
2022-09-23T01:00:32.407Z,86
2022-09-23T01:01:32.498Z,86
2022-09-23T01:02:32.462Z,85
2022-09-23T01:03:32.438Z,85
2022-09-23T01:04:32.412Z,85
2022-09-23T01:05:32.470Z,85
2022-09-23T01:06:32.428Z,85
2022-09-23T01:07:32.471Z,85
2022-09-23T01:08:32.380Z,85
2022-09-23T01:09:32.445Z,85
2022-09-23T01:10:32.460Z,85
2022-09-23T01:11:32.466Z,85
2022-09-23T01:12:32.342Z,85
2022-09-23T01:13:32.450Z,85
2022-09-23T01:14:32.445Z,85
2022-09-23T01:15:32.464Z,85
2022-09-23T01:16:32.438Z,85
2022-09-23T01:17:32.453Z,84
2022-09-23T01:18:32.424Z,84
2022-09-23T01:19:32.453Z,84
2022-09-23T01:20:32.362Z,84
2022-09-23T01:21:32.457Z,84
2022-09-23T01:22:32.454Z,84
2022-09-23T01:23:32.467Z,84
2022-09-23T01:24:32.361Z,84
2022-09-23T01:25:32.460Z,84
2022-09-23T01:26:32.450Z,84
2022-09-23T01:27:32.473Z,84
2022-09-23T01:28:32.367Z,84
2022-09-23T01:29:32.436Z,84
2022-09-23T01:30:32.496Z,84
2022-09-23T01:31:32.470Z,85
2022-09-23T01:32:32.349Z,85
2022-09-23T01:33:32.453Z,85
2022-09-23T01:34:32.450Z,85
2022-09-23T01:35:32.488Z,84
2022-09-23T01:36:32.348Z,84
2022-09-23T01:37:32.470Z,84
2022-09-23T01:38:32.477Z,84
2022-09-23T01:39:32.466Z,84
2022-09-23T01:40:32.589Z,85
2022-09-23T01:41:32.565Z,85
2022-09-23T01:42:32.607Z,85
2022-09-23T01:43:32.562Z,85
2022-09-23T01:44:32.394Z,85
2022-09-23T01:45:32.550Z,85
2022-09-23T01:46:32.600Z,85
2022-09-23T01:47:32.633Z,85
2022-09-23T01:48:32.500Z,85
2022-09-23T01:49:32.498Z,85
2022-09-23T01:50:32.646Z,85
2022-09-23T01:51:32.467Z,85
2022-09-23T01:52:32.333Z,85
2022-09-23T01:53:32.439Z,85
2022-09-23T01:54:32.442Z,85
2022-09-23T01:55:32.459Z,85
2022-09-23T01:56:32.261Z,85
2022-09-23T01:57:32.439Z,85
2022-09-23T01:58:32.467Z,85
2022-09-23T01:59:32.423Z,85
2022-09-23T02:00:32.322Z,85
2022-09-23T02:01:32.481Z,85
2022-09-23T02:02:32.504Z,85
2022-09-23T02:03:32.460Z,86
2022-09-23T02:04:32.333Z,86
2022-09-23T02:05:32.447Z,86
2022-09-23T02:06:32.467Z,86
2022-09-23T02:07:32.448Z,86
2022-09-23T02:08:32.276Z,86
2022-09-23T02:09:32.431Z,86
2022-09-23T02:10:32.448Z,86
2022-09-23T02:11:32.437Z,86
2022-09-23T02:12:32.285Z,86
2022-09-23T02:13:32.423Z,86
2022-09-23T02:14:32.479Z,86
2022-09-23T02:15:32.444Z,86
2022-09-23T02:16:32.298Z,86
2022-09-23T02:17:32.440Z,85
2022-09-23T02:18:32.441Z,86
2022-09-23T02:19:32.448Z,86
2022-09-23T02:20:32.291Z,85
2022-09-23T02:21:32.443Z,86
2022-09-23T02:22:32.432Z,86
2022-09-23T02:23:32.467Z,86
2022-09-23T02:24:32.288Z,86
2022-09-23T02:25:32.440Z,86
2022-09-23T02:26:32.447Z,86
2022-09-23T02:27:32.424Z,86
2022-09-23T02:28:32.215Z,86
2022-09-23T02:29:32.442Z,86
2022-09-23T02:30:32.456Z,86
2022-09-23T02:31:32.511Z,86
2022-09-23T02:32:32.258Z,86
2022-09-23T02:33:32.447Z,86
2022-09-23T02:34:32.423Z,86
2022-09-23T02:35:32.437Z,86
2022-09-23T02:36:32.238Z,86
2022-09-23T02:37:32.839Z,86
2022-09-23T02:38:32.437Z,86
2022-09-23T02:39:32.451Z,86
2022-09-23T02:40:32.291Z,86
2022-09-23T02:41:32.438Z,86
2022-09-23T02:42:32.436Z,86
2022-09-23T02:43:32.441Z,86
2022-09-23T02:44:32.272Z,86
2022-09-23T02:45:32.576Z,87
2022-09-23T02:46:32.446Z,87
2022-09-23T02:47:32.438Z,87
2022-09-23T02:48:32.226Z,87
2022-09-23T02:49:32.433Z,87
2022-09-23T02:50:32.475Z,87
2022-09-23T02:51:32.412Z,87
2022-09-23T02:52:32.268Z,87
2022-09-23T02:53:32.439Z,87
2022-09-23T02:54:32.450Z,87
2022-09-23T02:55:32.470Z,87
2022-09-23T02:56:32.221Z,87
2022-09-23T02:57:32.415Z,87
2022-09-23T02:58:32.454Z,87
2022-09-23T02:59:32.426Z,87
2022-09-23T03:00:32.181Z,87
2022-09-23T03:01:32.656Z,87
2022-09-23T03:02:32.544Z,87
2022-09-23T03:03:32.424Z,87
2022-09-23T03:04:32.193Z,87
2022-09-23T03:05:32.448Z,87
2022-09-23T03:06:32.454Z,87
2022-09-23T03:07:32.406Z,87
2022-09-23T03:08:32.234Z,87
2022-09-23T03:09:32.417Z,87
2022-09-23T03:10:32.433Z,87
2022-09-23T03:11:32.581Z,87
2022-09-23T03:12:32.347Z,87
2022-09-23T03:13:32.584Z,87
2022-09-23T03:14:32.602Z,87
2022-09-23T03:15:32.532Z,87
2022-09-23T03:16:32.403Z,87
2022-09-23T03:17:32.536Z,87
2022-09-23T03:18:32.563Z,87
2022-09-23T03:19:32.532Z,88
2022-09-23T03:20:32.306Z,88
2022-09-23T03:21:32.565Z,88
2022-09-23T03:22:32.583Z,88
2022-09-23T03:23:32.443Z,88
2022-09-23T03:24:32.310Z,88
2022-09-23T03:25:32.598Z,88
2022-09-23T03:26:32.524Z,88
2022-09-23T03:27:32.560Z,88
2022-09-23T03:28:32.244Z,88
2022-09-23T03:29:32.592Z,88
2022-09-23T03:30:32.560Z,88
2022-09-23T03:31:32.485Z,87
2022-09-23T03:32:32.259Z,87
2022-09-23T03:33:32.441Z,87
2022-09-23T03:34:32.442Z,87
2022-09-23T03:35:32.465Z,87
2022-09-23T03:36:32.148Z,87
2022-09-23T03:37:32.398Z,87
2022-09-23T03:38:32.430Z,87
2022-09-23T03:39:32.556Z,87
2022-09-23T03:40:32.263Z,87
2022-09-23T03:41:32.548Z,87
2022-09-23T03:42:32.639Z,87
2022-09-23T03:43:37.993Z,87
2022-09-23T03:44:32.156Z,87
2022-09-23T03:45:32.527Z,87
2022-09-23T03:46:32.425Z,87
2022-09-23T03:47:32.403Z,87
2022-09-23T03:48:32.179Z,87
2022-09-23T03:49:32.434Z,87
2022-09-23T03:50:32.435Z,87
2022-09-23T03:51:32.449Z,87
2022-09-23T03:52:32.150Z,87
2022-09-23T03:53:32.552Z,87
2022-09-23T03:54:32.438Z,87
2022-09-23T03:55:32.585Z,87
2022-09-23T03:56:32.139Z,87
2022-09-23T03:57:32.423Z,87
2022-09-23T03:58:32.473Z,87
2022-09-23T03:59:32.452Z,87
2022-09-23T04:00:32.240Z,87
2022-09-23T04:01:32.559Z,87
2022-09-23T04:02:32.491Z,88
2022-09-23T04:03:32.455Z,88
2022-09-23T04:04:32.106Z,88
2022-09-23T04:05:32.497Z,88
2022-09-23T04:06:32.457Z,88
2022-09-23T04:07:32.394Z,88
2022-09-23T04:08:32.102Z,88
2022-09-23T04:09:32.408Z,88
2022-09-23T04:10:32.440Z,88
2022-09-23T04:11:32.418Z,88
2022-09-23T04:12:32.109Z,88
2022-09-23T04:13:32.436Z,88
2022-09-23T04:14:32.440Z,88
2022-09-23T04:15:32.544Z,88
2022-09-23T04:16:32.185Z,88
2022-09-23T04:17:32.419Z,88
2022-09-23T04:18:32.440Z,89
2022-09-23T04:19:32.436Z,89
2022-09-23T04:20:32.117Z,89
2022-09-23T04:21:32.434Z,89
2022-09-23T04:22:32.447Z,89
2022-09-23T04:23:32.397Z,89
2022-09-23T04:24:32.144Z,89
2022-09-23T04:25:32.411Z,89
2022-09-23T04:26:32.408Z,89
2022-09-23T04:27:37.400Z,89
2022-09-23T04:28:32.103Z,89
2022-09-23T04:29:32.431Z,89
2022-09-23T04:30:32.425Z,89
2022-09-23T04:31:32.481Z,89
2022-09-23T04:32:32.113Z,89
2022-09-23T04:33:32.425Z,89
2022-09-23T04:34:32.445Z,89
2022-09-23T04:35:34.051Z,89
2022-09-23T04:36:32.067Z,89
2022-09-23T04:37:32.429Z,89
2022-09-23T04:38:32.435Z,90
2022-09-23T04:39:32.444Z,90
2022-09-23T04:40:32.116Z,90
2022-09-23T04:41:32.453Z,90
2022-09-23T04:42:32.423Z,90
2022-09-23T04:43:32.394Z,90
2022-09-23T04:44:32.110Z,90
2022-09-23T04:45:32.414Z,90
2022-09-23T04:46:32.500Z,90
2022-09-23T04:47:32.429Z,90
2022-09-23T04:48:32.075Z,90
2022-09-23T04:49:32.439Z,90
2022-09-23T04:50:32.405Z,90
2022-09-23T04:51:32.438Z,90
2022-09-23T04:52:32.083Z,90
2022-09-23T04:53:32.420Z,90
2022-09-23T04:54:32.432Z,90
2022-09-23T04:55:32.411Z,90
2022-09-23T04:56:32.050Z,90
2022-09-23T04:57:32.420Z,90
2022-09-23T04:58:32.434Z,90
2022-09-23T04:59:32.403Z,90
2022-09-23T05:00:32.137Z,90
2022-09-23T05:01:32.733Z,90
2022-09-23T05:02:32.485Z,90
2022-09-23T05:03:32.419Z,90
2022-09-23T05:04:32.104Z,90
2022-09-23T05:05:32.438Z,90
2022-09-23T05:06:32.417Z,90
2022-09-23T05:07:32.443Z,90
2022-09-23T05:08:32.021Z,90
2022-09-23T05:09:32.442Z,90
2022-09-23T05:10:32.441Z,90
2022-09-23T05:11:32.435Z,90
2022-09-23T05:12:32.036Z,90
2022-09-23T05:13:32.524Z,90
2022-09-23T05:14:32.425Z,90
2022-09-23T05:15:32.439Z,90
2022-09-23T05:16:32.163Z,90
2022-09-23T05:17:32.450Z,90
2022-09-23T05:18:32.435Z,89
2022-09-23T05:19:32.352Z,90
2022-09-23T05:20:32.030Z,89
2022-09-23T05:21:32.434Z,89
2022-09-23T05:22:32.441Z,89
2022-09-23T05:23:32.432Z,89
2022-09-23T05:24:32.049Z,89
2022-09-23T05:25:36.333Z,89
2022-09-23T05:26:32.476Z,89
2022-09-23T05:27:32.452Z,89
2022-09-23T05:28:31.994Z,89
2022-09-23T05:29:32.441Z,89
2022-09-23T05:30:32.405Z,89
2022-09-23T05:31:32.463Z,89
2022-09-23T05:32:32.020Z,89
2022-09-23T05:33:32.495Z,89
2022-09-23T05:34:32.413Z,89
2022-09-23T05:35:32.523Z,89
2022-09-23T05:36:36.910Z,89
2022-09-23T05:37:32.568Z,89
2022-09-23T05:38:32.444Z,89
2022-09-23T05:39:32.434Z,89
2022-09-23T05:40:32.057Z,89
2022-09-23T05:41:32.453Z,88
2022-09-23T05:42:32.401Z,88
2022-09-23T05:43:32.560Z,89
2022-09-23T05:44:31.984Z,88
2022-09-23T05:45:32.558Z,88
2022-09-23T05:46:32.471Z,88
2022-09-23T05:47:32.442Z,88
2022-09-23T05:48:32.072Z,88
2022-09-23T05:49:55.201Z,88
2022-09-23T05:50:32.472Z,88
2022-09-23T05:51:32.421Z,88
2022-09-23T05:52:31.999Z,88
2022-09-23T05:53:32.421Z,88
2022-09-23T05:54:32.449Z,88
2022-09-23T05:55:32.402Z,88
2022-09-23T05:56:32.087Z,88
2022-09-23T05:57:32.453Z,88
2022-09-23T05:58:32.435Z,88
2022-09-23T05:59:32.434Z,87
2022-09-23T06:00:32.181Z,88
2022-09-23T06:01:32.538Z,87
2022-09-23T06:02:32.471Z,87
2022-09-23T06:03:32.539Z,87
2022-09-23T06:04:31.976Z,87
2022-09-23T06:05:32.455Z,87
2022-09-23T06:06:32.562Z,87
2022-09-23T06:07:32.414Z,87
2022-09-23T06:08:32.009Z,87
2022-09-23T06:09:36.384Z,87
2022-09-23T06:10:32.463Z,87
2022-09-23T06:11:32.397Z,87
2022-09-23T06:12:31.932Z,87
2022-09-23T06:13:32.428Z,87
2022-09-23T06:14:32.500Z,87
2022-09-23T06:15:32.429Z,87
2022-09-23T06:16:32.031Z,87
2022-09-23T06:17:32.563Z,87
2022-09-23T06:18:32.433Z,87
2022-09-23T06:19:32.426Z,87
2022-09-23T06:20:31.976Z,87
2022-09-23T06:21:32.475Z,87
2022-09-23T06:22:34.852Z,87
2022-09-23T06:23:32.500Z,87
2022-09-23T06:24:32.006Z,87
2022-09-23T06:25:32.419Z,87
2022-09-23T06:26:32.424Z,87
2022-09-23T06:27:32.408Z,87
2022-09-23T06:28:31.955Z,87
2022-09-23T06:29:32.461Z,87
2022-09-23T06:30:32.427Z,86
2022-09-23T06:31:32.553Z,87
2022-09-23T06:32:31.912Z,86
2022-09-23T06:33:36.693Z,86
2022-09-23T06:34:39.276Z,86
2022-09-23T06:35:32.395Z,86
2022-09-23T06:36:42.371Z,86
2022-09-23T06:37:32.397Z,86
2022-09-23T06:38:32.434Z,86
2022-09-23T06:39:32.447Z,86
2022-09-23T06:40:32.012Z,86
2022-09-23T06:41:32.423Z,86
2022-09-23T06:42:32.402Z,86
2022-09-23T06:43:32.403Z,86
2022-09-23T06:44:31.923Z,86
2022-09-23T06:45:32.424Z,86
2022-09-23T06:46:32.589Z,86
2022-09-23T06:47:32.411Z,86
2022-09-23T06:48:31.917Z,85
2022-09-23T06:49:32.398Z,85
2022-09-23T06:50:32.419Z,85
2022-09-23T06:51:32.411Z,86
2022-09-23T06:52:31.932Z,85
2022-09-23T06:53:32.484Z,85
2022-09-23T06:54:32.407Z,85
2022-09-23T06:55:32.429Z,85
2022-09-23T06:56:36.294Z,85
2022-09-23T06:57:32.396Z,85
2022-09-23T06:58:32.451Z,85
2022-09-23T06:59:32.408Z,85
2022-09-23T07:00:31.895Z,85
2022-09-23T07:01:32.553Z,85
2022-09-23T07:02:32.543Z,85
2022-09-23T07:03:32.396Z,85
2022-09-23T07:04:31.869Z,85
2022-09-23T07:05:32.456Z,85
2022-09-23T07:06:32.536Z,85
2022-09-23T07:07:32.408Z,85
2022-09-23T07:08:31.934Z,85
2022-09-23T07:09:32.429Z,85
2022-09-23T07:10:32.419Z,85
2022-09-23T07:11:32.378Z,85
2022-09-23T07:12:31.895Z,85
2022-09-23T07:13:32.486Z,85
2022-09-23T07:14:32.420Z,84
2022-09-23T07:15:32.487Z,84
2022-09-23T07:16:31.971Z,84
2022-09-23T07:17:32.427Z,84
2022-09-23T07:18:36.495Z,84
2022-09-23T07:19:32.380Z,84
2022-09-23T07:20:31.871Z,84
2022-09-23T07:21:32.407Z,84
2022-09-23T07:22:32.430Z,84
2022-09-23T07:23:32.402Z,84
2022-09-23T07:24:31.896Z,84
2022-09-23T07:25:32.404Z,84
2022-09-23T07:26:32.419Z,84
2022-09-23T07:27:32.376Z,84
2022-09-23T07:28:31.877Z,84
2022-09-23T07:29:39.994Z,84
2022-09-23T07:30:32.420Z,84
2022-09-23T07:31:38.748Z,84
2022-09-23T07:32:40.812Z,83
2022-09-23T07:33:33.305Z,83
2022-09-23T07:34:32.383Z,83
2022-09-23T07:35:32.414Z,83
2022-09-23T07:36:31.818Z,83
2022-09-23T07:37:32.409Z,83
2022-09-23T07:38:32.404Z,83
2022-09-23T07:39:32.479Z,83
2022-09-23T07:40:31.908Z,82
2022-09-23T07:41:32.417Z,82
2022-09-23T07:42:32.386Z,82
2022-09-23T07:43:32.553Z,82
2022-09-23T07:44:31.842Z,82
2022-09-23T07:45:32.467Z,83
2022-09-23T07:46:32.487Z,82
2022-09-23T07:47:32.414Z,82
2022-09-23T07:48:34.307Z,82
2022-09-23T07:49:32.433Z,82
2022-09-23T07:50:32.415Z,82
2022-09-23T07:51:35.953Z,82
2022-09-23T07:52:31.837Z,82
2022-09-23T07:53:32.536Z,82
2022-09-23T07:54:32.402Z,83
2022-09-23T07:55:32.551Z,83
2022-09-23T07:56:31.839Z,82
2022-09-23T07:57:32.422Z,82
2022-09-23T07:58:32.433Z,82
2022-09-23T07:59:32.434Z,82
2022-09-23T08:00:31.849Z,82
2022-09-23T08:01:32.539Z,82
2022-09-23T08:02:32.429Z,82
2022-09-23T08:03:32.400Z,82
2022-09-23T08:04:31.814Z,82
2022-09-23T08:05:32.437Z,82
2022-09-23T08:06:32.393Z,82
2022-09-23T08:07:32.390Z,81
2022-09-23T08:08:31.799Z,82
2022-09-23T08:09:32.429Z,81
2022-09-23T08:10:32.516Z,81
2022-09-23T08:11:32.570Z,81
2022-09-23T08:12:31.807Z,81
2022-09-23T08:13:32.417Z,81
2022-09-23T08:14:32.402Z,81
2022-09-23T08:15:32.449Z,81
2022-09-23T08:16:31.814Z,81
2022-09-23T08:17:32.414Z,81
2022-09-23T08:18:32.377Z,81
2022-09-23T08:19:32.407Z,81
2022-09-23T08:20:31.770Z,81
2022-09-23T08:21:32.425Z,81
2022-09-23T08:22:32.551Z,80
2022-09-23T08:23:32.416Z,81
2022-09-23T08:24:31.770Z,81
2022-09-23T08:25:34.140Z,81
2022-09-23T08:26:32.401Z,80
2022-09-23T08:27:32.398Z,81
2022-09-23T08:28:31.789Z,80
2022-09-23T08:29:32.430Z,80
2022-09-23T08:30:32.503Z,80
2022-09-23T08:31:32.416Z,80
2022-09-23T08:32:31.785Z,80
2022-09-23T08:33:32.386Z,80
2022-09-23T08:34:32.400Z,80
2022-09-23T08:35:32.415Z,80
2022-09-23T08:36:31.789Z,80
2022-09-23T08:37:32.406Z,79
2022-09-23T08:38:32.398Z,79
2022-09-23T08:39:32.411Z,80
2022-09-23T08:40:31.795Z,79
2022-09-23T08:41:32.424Z,79
2022-09-23T08:42:32.445Z,79
2022-09-23T08:43:32.418Z,79
2022-09-23T08:44:31.761Z,79
2022-09-23T08:45:32.540Z,79
2022-09-23T08:46:32.412Z,79
2022-09-23T08:47:32.412Z,79
2022-09-23T08:48:31.770Z,78
2022-09-23T08:49:32.401Z,78
2022-09-23T08:50:32.459Z,78
2022-09-23T08:51:32.389Z,78
2022-09-23T08:52:31.725Z,78
2022-09-23T08:53:32.399Z,78
2022-09-23T08:54:32.405Z,78
2022-09-23T08:55:32.382Z,78
2022-09-23T08:56:31.737Z,78
2022-09-23T08:57:32.414Z,77
2022-09-23T08:58:32.392Z,78
2022-09-23T08:59:32.396Z,77
2022-09-23T09:00:31.789Z,77
2022-09-23T09:01:32.523Z,77
2022-09-23T09:02:32.463Z,77
2022-09-23T09:03:32.407Z,76
2022-09-23T09:04:31.750Z,75
2022-09-23T09:05:32.404Z,75
2022-09-23T09:06:32.412Z,75
2022-09-23T09:07:36.700Z,74
2022-09-23T09:08:31.707Z,74
2022-09-23T09:09:32.388Z,74
2022-09-23T09:10:32.416Z,74
2022-09-23T09:11:32.392Z,74
2022-09-23T09:12:31.710Z,73
2022-09-23T09:13:32.399Z,73
2022-09-23T09:14:32.419Z,74
2022-09-23T09:15:32.620Z,74
2022-09-23T09:16:55.509Z,74
2022-09-23T09:17:35.031Z,74
2022-09-23T09:18:32.570Z,73
2022-09-23T09:19:32.396Z,73
2022-09-23T09:20:31.781Z,72
2022-09-23T09:21:32.397Z,73
2022-09-23T09:22:32.658Z,72
2022-09-23T09:23:32.444Z,71
2022-09-23T09:24:32.434Z,70
2022-09-23T09:25:34.267Z,70
2022-09-23T09:26:32.403Z,69
2022-09-23T09:27:32.393Z,69
2022-09-23T09:28:32.424Z,69
2022-09-23T09:29:35.753Z,67
2022-09-23T09:30:32.398Z,68
2022-09-23T09:31:32.577Z,67
2022-09-23T09:32:31.713Z,67
2022-09-23T09:33:32.391Z,67
2022-09-23T09:34:32.401Z,66
2022-09-23T09:35:32.398Z,66
2022-09-23T09:36:31.700Z,64
2022-09-23T09:37:32.416Z,65
2022-09-23T09:38:32.403Z,65
2022-09-23T09:39:32.387Z,65
2022-09-23T09:40:32.459Z,65
2022-09-23T09:41:32.463Z,64
2022-09-23T09:42:32.383Z,65
2022-09-23T09:43:32.614Z,64
2022-09-23T09:44:32.416Z,65
2022-09-23T09:45:33.553Z,64
2022-09-23T09:46:32.486Z,64
2022-09-23T09:47:32.380Z,64
2022-09-23T09:48:32.408Z,64
2022-09-23T09:49:34.732Z,65
2022-09-23T09:50:32.411Z,64
2022-09-23T09:51:32.393Z,65
2022-09-23T09:52:32.397Z,65
2022-09-23T09:53:32.331Z,64
2022-09-23T09:54:32.324Z,64
2022-09-23T09:55:32.395Z,62
2022-09-23T09:56:32.327Z,64
2022-09-23T09:57:35.371Z,64
2022-09-23T09:58:32.420Z,64
2022-09-23T09:59:32.311Z,64
2022-09-23T10:00:32.352Z,64
2022-09-23T10:01:32.411Z,64
2022-09-23T10:02:32.370Z,65
2022-09-23T10:03:32.347Z,65
2022-09-23T10:04:32.430Z,65
2022-09-23T10:05:32.352Z,65
2022-09-23T10:06:32.349Z,66
2022-09-23T10:07:32.354Z,66
2022-09-23T10:08:32.359Z,66
2022-09-23T10:09:32.350Z,65
2022-09-23T10:10:33.546Z,65
2022-09-23T10:11:32.341Z,66
2022-09-23T10:12:32.341Z,65
2022-09-23T10:13:32.341Z,64
2022-09-23T10:14:32.387Z,64
2022-09-23T10:15:32.321Z,65
2022-09-23T10:16:32.428Z,65
2022-09-23T10:17:32.391Z,64
2022-09-23T10:18:32.344Z,63
2022-09-23T10:19:32.319Z,61
2022-09-23T10:20:32.396Z,61
2022-09-23T10:21:32.326Z,63
2022-09-23T10:22:32.364Z,64
2022-09-23T10:23:32.356Z,66
2022-09-23T10:24:32.403Z,66
2022-09-23T10:25:32.351Z,66
2022-09-23T10:26:32.401Z,66
2022-09-23T10:27:32.319Z,66
2022-09-23T10:28:32.342Z,66
2022-09-23T10:29:32.346Z,66
2022-09-23T10:30:32.377Z,66
2022-09-23T10:31:32.385Z,64
2022-09-23T10:32:32.370Z,64
2022-09-23T10:33:32.344Z,65
2022-09-23T10:34:32.307Z,66
2022-09-23T10:35:32.369Z,66
2022-09-23T10:36:32.345Z,66
2022-09-23T10:37:32.366Z,66
2022-09-23T10:38:32.332Z,65
2022-09-23T10:39:32.371Z,65
2022-09-23T10:40:32.387Z,65
2022-09-23T10:41:32.347Z,66
2022-09-23T10:42:32.345Z,65
2022-09-23T10:43:32.350Z,65
2022-09-23T10:44:32.319Z,65
2022-09-23T10:45:32.348Z,65
2022-09-23T10:46:32.518Z,65
2022-09-23T10:47:32.343Z,66
2022-09-23T10:48:32.339Z,65
2022-09-23T10:49:32.348Z,66
2022-09-23T10:50:32.333Z,66
2022-09-23T10:51:32.346Z,65
2022-09-23T10:52:32.335Z,65
2022-09-23T10:53:32.344Z,65
2022-09-23T10:54:32.350Z,65
2022-09-23T10:55:32.353Z,65
2022-09-23T10:56:32.326Z,65
2022-09-23T10:57:32.337Z,65
2022-09-23T10:58:32.375Z,65
2022-09-23T10:59:32.354Z,64
2022-09-23T11:00:32.321Z,64
2022-09-23T11:01:32.423Z,65
2022-09-23T11:02:32.336Z,66
2022-09-23T11:03:32.389Z,65
2022-09-23T11:04:32.488Z,64
2022-09-23T11:05:32.382Z,64
2022-09-23T11:06:32.501Z,64
2022-09-23T11:07:36.846Z,64
2022-09-23T11:08:32.346Z,63
2022-09-23T11:09:32.358Z,63
2022-09-23T11:10:45.369Z,61
2022-09-23T11:11:32.378Z,60
2022-09-23T11:12:32.330Z,60
2022-09-23T11:13:32.323Z,60
2022-09-23T11:14:32.356Z,60
2022-09-23T11:15:32.335Z,59
2022-09-23T11:16:32.415Z,60
2022-09-23T11:17:32.359Z,60
2022-09-23T11:18:32.370Z,60
2022-09-23T11:19:32.354Z,60
2022-09-23T11:20:32.332Z,60
2022-09-23T11:21:32.357Z,60
2022-09-23T11:22:32.365Z,59
2022-09-23T11:23:32.380Z,60
2022-09-23T11:24:32.348Z,60
2022-09-23T11:25:32.380Z,60
2022-09-23T11:26:33.274Z,59
2022-09-23T11:27:32.344Z,59
2022-09-23T11:28:32.366Z,59
2022-09-23T11:29:32.356Z,59
2022-09-23T11:30:32.449Z,59
2022-09-23T11:31:32.447Z,59
2022-09-23T11:32:32.329Z,59
2022-09-23T11:33:32.375Z,60
2022-09-23T11:34:32.477Z,60
2022-09-23T11:35:32.435Z,60
2022-09-23T11:36:32.367Z,59
2022-09-23T11:37:32.363Z,59
2022-09-23T11:38:32.386Z,60
2022-09-23T11:39:32.342Z,59
2022-09-23T11:40:32.487Z,60
2022-09-23T11:41:32.379Z,60
2022-09-23T11:42:32.357Z,60
2022-09-23T11:43:32.362Z,59
2022-09-23T11:44:32.354Z,60
2022-09-23T11:45:32.456Z,59
2022-09-23T11:46:32.382Z,58
2022-09-23T11:47:35.346Z,58
2022-09-23T11:48:32.372Z,57
2022-09-23T11:49:32.370Z,59
2022-09-23T11:50:32.387Z,58
2022-09-23T11:51:32.424Z,58
2022-09-23T11:52:32.348Z,58
2022-09-23T11:53:32.342Z,58
2022-09-23T11:54:32.378Z,58
2022-09-23T11:55:32.375Z,58
2022-09-23T11:56:35.529Z,59
2022-09-23T11:57:40.218Z,59
2022-09-23T11:58:32.492Z,60
2022-09-23T11:59:37.938Z,59
2022-09-23T12:00:32.347Z,59
2022-09-23T12:01:37.263Z,59
2022-09-23T12:02:32.542Z,58
2022-09-23T12:03:43.576Z,59
2022-09-23T12:04:32.479Z,58
2022-09-23T12:05:32.451Z,58
2022-09-23T12:06:32.387Z,59
2022-09-23T12:07:32.385Z,59
2022-09-23T12:08:32.400Z,60
2022-09-23T12:09:56.543Z,59
2022-09-23T12:10:32.420Z,60
2022-09-23T12:11:32.359Z,60
2022-09-23T12:12:32.378Z,60
2022-09-23T12:13:32.350Z,58
2022-09-23T12:14:32.340Z,59
2022-09-23T12:15:33.334Z,59
2022-09-23T12:16:32.525Z,60
2022-09-23T12:17:32.371Z,60
2022-09-23T12:18:32.363Z,60
2022-09-23T12:19:32.373Z,60
2022-09-23T12:20:32.377Z,59
2022-09-23T12:21:49.703Z,59
2022-09-23T12:22:32.475Z,60
2022-09-23T12:23:32.394Z,59
2022-09-23T12:24:32.364Z,60
2022-09-23T12:25:32.353Z,60
2022-09-23T12:26:32.391Z,60
2022-09-23T12:27:32.362Z,60
2022-09-23T12:28:32.364Z,60
2022-09-23T12:29:32.371Z,59
2022-09-23T12:30:32.441Z,59
2022-09-23T12:31:33.883Z,58
2022-09-23T12:32:32.378Z,56
2022-09-23T12:33:32.347Z,56
2022-09-23T12:34:32.443Z,57
2022-09-23T12:35:32.352Z,56
2022-09-23T12:36:32.392Z,57
2022-09-23T12:37:32.448Z,57
2022-09-23T12:38:32.358Z,57
2022-09-23T12:39:32.339Z,57
2022-09-23T12:40:32.466Z,57
2022-09-23T12:41:32.366Z,57
2022-09-23T12:42:32.360Z,57
2022-09-23T12:43:32.365Z,56
2022-09-23T12:44:32.414Z,56
2022-09-23T12:45:32.766Z,56
2022-09-23T12:46:32.371Z,56
2022-09-23T12:47:32.379Z,56
2022-09-23T12:48:32.354Z,55
2022-09-23T12:49:32.360Z,55
2022-09-23T12:50:32.345Z,55
2022-09-23T12:51:32.360Z,56
2022-09-23T12:52:32.420Z,56
2022-09-23T12:53:32.366Z,56
2022-09-23T12:54:32.359Z,56
2022-09-23T12:55:32.340Z,57
2022-09-23T12:56:32.351Z,56
2022-09-23T12:57:32.349Z,56
2022-09-23T12:58:32.368Z,56
2022-09-23T12:59:32.411Z,55
2022-09-23T13:00:34.410Z,56
2022-09-23T13:01:32.493Z,55
2022-09-23T13:02:32.532Z,55
2022-09-23T13:03:32.366Z,55
2022-09-23T13:04:32.378Z,55
2022-09-23T13:05:32.470Z,55
2022-09-23T13:06:32.370Z,54
2022-09-23T13:07:32.452Z,55
2022-09-23T13:08:32.375Z,55
2022-09-23T13:09:32.371Z,55
2022-09-23T13:10:32.356Z,54
2022-09-23T13:11:32.966Z,54
2022-09-23T13:12:32.389Z,54
2022-09-23T13:13:32.341Z,55
2022-09-23T13:14:32.400Z,55
2022-09-23T13:15:32.330Z,56
2022-09-23T13:16:32.442Z,55
2022-09-23T13:17:32.382Z,56
2022-09-23T13:18:32.374Z,57
2022-09-23T13:19:36.650Z,57
2022-09-23T13:20:32.377Z,58
2022-09-23T13:21:32.413Z,59
2022-09-23T13:22:32.377Z,60
2022-09-23T13:23:32.343Z,61
2022-09-23T13:24:32.371Z,61
2022-09-23T13:25:32.576Z,61
2022-09-23T13:26:32.370Z,62
2022-09-23T13:27:32.333Z,62
2022-09-23T13:28:32.378Z,62
2022-09-23T13:29:32.379Z,62
2022-09-23T13:30:32.478Z,63
2022-09-23T13:31:32.367Z,62
2022-09-23T13:32:32.379Z,62
2022-09-23T13:33:32.353Z,62
2022-09-23T13:34:32.370Z,63
2022-09-23T13:35:32.351Z,63
2022-09-23T13:36:32.393Z,63
2022-09-23T13:37:32.345Z,63
2022-09-23T13:38:32.381Z,62
2022-09-23T13:39:32.362Z,62
2022-09-23T13:40:32.380Z,62
2022-09-23T13:41:32.346Z,62
2022-09-23T13:42:32.351Z,63
2022-09-23T13:43:32.402Z,62
2022-09-23T13:44:32.358Z,63
2022-09-23T13:45:32.444Z,62
2022-09-23T13:46:32.419Z,63
2022-09-23T13:47:32.373Z,63
2022-09-23T13:48:32.374Z,63
2022-09-23T13:49:32.369Z,63
2022-09-23T13:50:35.070Z,64
2022-09-23T13:51:32.387Z,64
2022-09-23T13:52:32.360Z,64
2022-09-23T13:53:32.380Z,65
2022-09-23T13:54:32.354Z,65
2022-09-23T13:55:32.376Z,65
2022-09-23T13:56:32.394Z,66
2022-09-23T13:57:32.372Z,66
2022-09-23T13:58:32.599Z,66
2022-09-23T13:59:32.378Z,66
2022-09-23T14:00:32.370Z,66
2022-09-23T14:01:32.512Z,67
2022-09-23T14:02:32.413Z,66
2022-09-23T14:03:36.178Z,67
2022-09-23T14:04:32.449Z,67
2022-09-23T14:05:32.379Z,66
2022-09-23T14:06:32.365Z,67
2022-09-23T14:07:32.403Z,67
2022-09-23T14:08:32.351Z,64
2022-09-23T14:09:32.356Z,65
2022-09-23T14:10:32.367Z,64
2022-09-23T14:11:32.354Z,63
2022-09-23T14:12:32.388Z,60
2022-09-23T14:13:32.368Z,61
2022-09-23T14:14:32.386Z,61
2022-09-23T14:15:32.435Z,61